createdAt,value
2019-04-29T00:00:47.331Z,64.90
2019-04-29T00:03:17.108Z,65.00
2019-04-29T00:05:46.120Z,65.00
2019-04-29T00:08:15.337Z,65.00
2019-04-29T00:10:45.108Z,65.00
2019-04-29T00:13:14.544Z,65.10
2019-04-29T00:16:02.011Z,65.00
2019-04-29T00:18:46.311Z,65.00
2019-04-29T00:21:15.453Z,64.90
2019-04-29T00:23:44.724Z,64.90
2019-04-29T00:26:14.221Z,64.90
2019-04-29T00:28:43.147Z,64.90
2019-04-29T00:31:12.261Z,64.90
2019-04-29T00:33:41.057Z,65.00
2019-04-29T00:36:10.701Z,65.00
2019-04-29T00:38:54.938Z,65.00
2019-04-29T00:41:35.619Z,65.00
2019-04-29T00:44:06.957Z,65.00
2019-04-29T00:46:36.055Z,65.00
2019-04-29T00:49:05.345Z,65.00
2019-04-29T00:51:35.050Z,65.10
2019-04-29T00:54:12.237Z,65.10
2019-04-29T00:56:40.690Z,65.20
2019-04-29T00:59:09.587Z,65.90
2019-04-29T01:01:39.019Z,65.30
2019-04-29T01:04:08.253Z,65.40
2019-04-29T01:06:37.567Z,65.40
2019-04-29T01:09:10.732Z,65.40
2019-04-29T01:11:39.663Z,65.40
2019-04-29T01:14:08.822Z,65.80
2019-04-29T01:16:37.927Z,65.40
2019-04-29T01:19:07.318Z,65.40
2019-04-29T01:21:36.180Z,65.40
2019-04-29T01:24:05.209Z,65.60
2019-04-29T01:26:58.876Z,65.50
2019-04-29T01:29:29.069Z,65.60
2019-04-29T01:31:58.166Z,65.60
2019-04-29T01:34:32.020Z,65.70
2019-04-29T01:37:01.380Z,65.60
2019-04-29T01:39:38.767Z,65.60
2019-04-29T01:42:32.960Z,65.60
2019-04-29T01:45:02.058Z,65.70
2019-04-29T01:47:31.887Z,65.60
2019-04-29T01:50:00.655Z,65.60
2019-04-29T01:52:29.798Z,65.70
2019-04-29T01:54:58.973Z,65.60
2019-04-29T01:57:27.914Z,65.60
2019-04-29T01:59:56.992Z,65.60
2019-04-29T02:02:26.215Z,65.50
2019-04-29T02:04:55.037Z,65.60
2019-04-29T02:07:23.933Z,65.60
2019-04-29T02:10:02.304Z,65.60
2019-04-29T02:12:31.445Z,65.60
2019-04-29T02:15:00.816Z,65.80
2019-04-29T02:17:30.233Z,65.80
2019-04-29T02:19:59.463Z,65.90
2019-04-29T02:22:46.312Z,65.80
2019-04-29T02:25:20.355Z,65.90
2019-04-29T02:27:49.277Z,65.90
2019-04-29T02:30:52.707Z,66.00
2019-04-29T02:33:21.732Z,66.00
2019-04-29T02:35:50.969Z,66.00
2019-04-29T02:38:33.402Z,66.00
2019-04-29T02:41:19.243Z,66.10
2019-04-29T02:43:50.149Z,66.10
2019-04-29T02:46:19.536Z,66.10
2019-04-29T02:48:49.096Z,66.10
2019-04-29T02:51:37.096Z,66.10
2019-04-29T02:54:06.527Z,66.10
2019-04-29T02:56:35.329Z,66.10
2019-04-29T02:59:05.547Z,66.10
2019-04-29T03:01:43.122Z,66.10
2019-04-29T03:04:18.212Z,66.10
2019-04-29T03:06:47.733Z,66.10
2019-04-29T03:09:16.962Z,66.20
2019-04-29T03:14:37.974Z,66.20
2019-04-29T03:17:06.779Z,66.30
2019-04-29T03:19:38.417Z,66.30
2019-04-29T03:22:08.131Z,66.30
2019-04-29T03:24:37.482Z,66.40
2019-04-29T03:27:06.576Z,66.30
2019-04-29T03:29:36.086Z,66.40
2019-04-29T03:32:05.357Z,66.70
2019-04-29T03:34:34.865Z,66.60
2019-04-29T03:37:03.678Z,66.60
2019-04-29T03:39:32.661Z,66.60
2019-04-29T03:42:01.748Z,66.60
2019-04-29T03:44:30.555Z,66.70
2019-04-29T03:46:59.583Z,66.80
2019-04-29T03:49:28.438Z,66.70
2019-04-29T03:51:57.770Z,66.90
2019-04-29T03:54:26.859Z,66.80
2019-04-29T03:56:55.770Z,66.80
2019-04-29T03:59:25.175Z,66.90
2019-04-29T04:02:03.678Z,66.90
2019-04-29T04:04:50.339Z,67.00
2019-04-29T04:07:43.873Z,67.00
2019-04-29T04:10:13.278Z,67.00
2019-04-29T04:12:42.108Z,67.10
2019-04-29T04:15:11.020Z,67.10
2019-04-29T04:17:45.889Z,67.10
2019-04-29T04:20:15.289Z,67.10
2019-04-29T04:22:48.009Z,67.10
2019-04-29T04:25:17.748Z,67.10
2019-04-29T04:27:47.408Z,67.10
2019-04-29T04:30:17.207Z,67.10
2019-04-29T04:32:46.444Z,67.00
2019-04-29T04:35:16.783Z,67.20
2019-04-29T04:37:46.326Z,67.10
2019-04-29T04:40:18.580Z,67.20
2019-04-29T04:42:47.391Z,67.20
2019-04-29T04:45:18.108Z,67.20
2019-04-29T04:47:47.305Z,68.00
2019-04-29T04:50:16.650Z,67.30
2019-04-29T04:52:46.083Z,67.30
2019-04-29T04:55:15.263Z,67.40
2019-04-29T04:57:44.349Z,67.40
2019-04-29T05:00:20.434Z,67.40
2019-04-29T05:02:49.995Z,67.40
2019-04-29T05:05:20.048Z,67.40
2019-04-29T05:07:49.253Z,67.50
2019-04-29T05:10:18.190Z,67.40
2019-04-29T05:12:47.533Z,67.30
2019-04-29T05:15:16.349Z,67.50
2019-04-29T05:17:46.120Z,67.40
2019-04-29T05:20:15.132Z,67.50
2019-04-29T05:23:01.368Z,67.50
2019-04-29T05:25:32.152Z,67.50
2019-04-29T05:28:01.418Z,67.40
2019-04-29T05:30:30.487Z,67.50
2019-04-29T05:32:59.983Z,67.50
2019-04-29T05:35:45.488Z,67.50
2019-04-29T05:38:22.654Z,67.60
2019-04-29T05:40:52.258Z,67.60
2019-04-29T05:43:45.575Z,67.60
2019-04-29T05:46:27.224Z,67.60
2019-04-29T05:48:56.146Z,67.60
2019-04-29T05:51:30.277Z,67.60
2019-04-29T05:54:00.491Z,67.60
2019-04-29T05:56:29.338Z,67.60
2019-04-29T05:58:58.783Z,67.80
2019-04-29T06:01:29.081Z,67.80
2019-04-29T06:03:59.188Z,67.90
2019-04-29T06:06:28.230Z,67.90
2019-04-29T06:08:57.780Z,67.90
2019-04-29T06:11:27.061Z,68.00
2019-04-29T06:13:56.670Z,68.00
2019-04-29T06:16:25.546Z,68.00
2019-04-29T06:18:59.405Z,68.00
2019-04-29T06:21:26.002Z,68.10
2019-04-29T06:23:59.499Z,68.10
2019-04-29T06:26:26.021Z,68.10
2019-04-29T06:28:55.182Z,68.10
2019-04-29T06:31:24.059Z,68.10
2019-04-29T06:33:53.033Z,68.20
2019-04-29T06:36:22.219Z,68.20
2019-04-29T06:38:51.628Z,68.40
2019-04-29T06:41:20.765Z,68.30
2019-04-29T06:43:52.477Z,67.30
2019-04-29T06:46:21.202Z,67.30
2019-04-29T06:48:50.395Z,67.30
2019-04-29T06:51:19.314Z,67.30
2019-04-29T06:53:48.520Z,67.40
2019-04-29T06:56:17.697Z,67.30
2019-04-29T06:58:49.049Z,67.20
2019-04-29T07:01:17.214Z,67.30
2019-04-29T07:03:46.411Z,67.30
2019-04-29T07:06:15.439Z,67.40
2019-04-29T07:08:44.940Z,67.30
2019-04-29T07:11:14.260Z,67.40
2019-04-29T07:13:43.069Z,67.40
2019-04-29T07:16:12.604Z,67.30
2019-04-29T07:18:48.543Z,67.40
2019-04-29T07:21:13.106Z,67.50
2019-04-29T07:23:42.701Z,67.60
2019-04-29T07:26:12.163Z,67.60
2019-04-29T07:28:41.266Z,68.50
2019-04-29T07:31:10.703Z,67.70
2019-04-29T07:33:39.766Z,67.60
2019-04-29T07:36:11.220Z,67.70
2019-04-29T07:38:41.715Z,67.70
2019-04-29T07:41:14.301Z,67.70
2019-04-29T07:43:42.994Z,67.70
2019-04-29T07:46:27.278Z,67.80
2019-04-29T07:49:01.587Z,67.80
2019-04-29T07:51:27.580Z,67.80
2019-04-29T07:53:56.602Z,67.80
2019-04-29T07:56:25.426Z,67.90
2019-04-29T07:58:54.573Z,67.80
2019-04-29T08:01:24.344Z,67.90
2019-04-29T08:03:54.162Z,67.90
2019-04-29T08:06:23.471Z,68.00
2019-04-29T08:08:55.041Z,68.40
2019-04-29T08:11:24.897Z,68.60
2019-04-29T08:13:54.167Z,68.40
2019-04-29T08:16:23.427Z,68.40
2019-04-29T08:18:53.599Z,68.40
2019-04-29T08:21:24.147Z,68.30
2019-04-29T08:23:53.285Z,68.30
2019-04-29T08:26:22.438Z,68.30
2019-04-29T08:28:52.974Z,68.30
2019-04-29T08:31:22.296Z,68.30
2019-04-29T08:33:51.926Z,68.40
2019-04-29T08:36:21.163Z,68.20
2019-04-29T08:38:50.299Z,68.30
2019-04-29T08:41:21.039Z,68.30
2019-04-29T08:44:15.386Z,68.30
2019-04-29T08:46:38.630Z,68.40
2019-04-29T08:49:07.774Z,68.20
2019-04-29T08:51:37.035Z,68.20
2019-04-29T08:54:06.181Z,68.40
2019-04-29T08:56:35.323Z,68.40
2019-04-29T08:59:04.402Z,68.30
2019-04-29T09:01:35.708Z,68.50
2019-04-29T09:04:04.927Z,68.40
2019-04-29T09:06:34.137Z,68.50
2019-04-29T09:09:10.700Z,68.60
2019-04-29T09:11:36.895Z,68.50
2019-04-29T09:14:06.131Z,68.50
2019-04-29T09:16:35.246Z,68.50
2019-04-29T09:19:04.418Z,68.60
2019-04-29T09:21:34.015Z,68.60
2019-04-29T09:24:04.520Z,68.60
2019-04-29T09:26:38.724Z,68.60
2019-04-29T09:29:26.035Z,68.60
2019-04-29T09:31:55.238Z,68.80
2019-04-29T09:34:26.516Z,68.70
2019-04-29T09:36:55.538Z,68.80
2019-04-29T09:39:25.538Z,68.70
2019-04-29T09:42:14.542Z,68.70
2019-04-29T09:45:24.379Z,68.80
2019-04-29T09:47:51.843Z,68.80
2019-04-29T09:50:21.064Z,68.70
2019-04-29T09:52:50.345Z,68.70
2019-04-29T09:55:20.984Z,68.80
2019-04-29T09:57:50.222Z,68.80
2019-04-29T10:00:26.641Z,68.90
2019-04-29T10:03:02.742Z,69.00
2019-04-29T10:05:50.786Z,69.10
2019-04-29T10:08:19.625Z,69.00
2019-04-29T10:10:48.503Z,69.00
2019-04-29T10:13:17.390Z,69.10
2019-04-29T10:16:00.318Z,69.20
2019-04-29T10:18:34.947Z,69.10
2019-04-29T10:21:16.437Z,69.00
2019-04-29T10:23:43.687Z,69.00
2019-04-29T10:26:12.878Z,68.90
2019-04-29T10:29:01.417Z,69.10
2019-04-29T10:31:30.294Z,69.10
2019-04-29T10:34:00.019Z,69.20
2019-04-29T10:36:28.999Z,69.10
2019-04-29T10:39:01.575Z,69.10
2019-04-29T10:41:41.865Z,69.20
2019-04-29T10:44:38.922Z,69.20
2019-04-29T10:47:22.238Z,69.20
2019-04-29T10:50:15.500Z,69.20
2019-04-29T10:52:43.712Z,69.20
2019-04-29T10:55:13.513Z,69.20
2019-04-29T10:57:44.954Z,69.20
2019-04-29T11:00:24.372Z,69.30
2019-04-29T11:02:53.625Z,69.40
2019-04-29T11:06:00.036Z,69.50
2019-04-29T11:08:38.266Z,69.50
2019-04-29T11:11:22.207Z,69.60
2019-04-29T11:13:48.093Z,69.70
2019-04-29T11:16:12.822Z,69.60
2019-04-29T11:18:42.417Z,69.70
2019-04-29T11:21:11.559Z,69.90
2019-04-29T11:23:50.694Z,70.00
2019-04-29T11:26:35.534Z,70.10
2019-04-29T11:29:08.888Z,70.20
2019-04-29T11:31:36.611Z,70.30
2019-04-29T11:34:28.141Z,70.10
2019-04-29T11:36:57.570Z,70.00
2019-04-29T11:39:27.014Z,69.80
2019-04-29T11:41:59.698Z,69.80
2019-04-29T11:44:27.971Z,69.80
2019-04-29T11:46:57.073Z,70.00
2019-04-29T11:49:34.861Z,70.10
2019-04-29T11:52:09.682Z,70.10
2019-04-29T11:54:34.670Z,70.10
2019-04-29T11:57:03.689Z,70.00
2019-04-29T11:59:46.161Z,71.00
2019-04-29T12:02:45.548Z,70.20
2019-04-29T12:05:21.988Z,70.40
2019-04-29T12:07:51.062Z,70.20
2019-04-29T12:10:20.337Z,70.10
2019-04-29T12:12:49.854Z,70.10
2019-04-29T12:15:25.863Z,70.20
2019-04-29T12:18:11.605Z,70.10
2019-04-29T12:21:06.162Z,69.90
2019-04-29T12:23:35.378Z,69.60
2019-04-29T12:26:05.059Z,69.80
2019-04-29T12:28:37.884Z,70.00
2019-04-29T12:31:11.837Z,70.20
2019-04-29T12:33:46.984Z,70.00
2019-04-29T12:36:16.658Z,70.10
2019-04-29T12:39:08.230Z,70.10
2019-04-29T12:41:55.250Z,69.90
2019-04-29T12:44:35.489Z,69.90
2019-04-29T12:47:05.183Z,69.90
2019-04-29T12:49:34.129Z,69.80
2019-04-29T12:52:03.141Z,69.60
2019-04-29T12:54:31.957Z,69.50
2019-04-29T12:57:00.774Z,69.50
2019-04-29T12:59:30.601Z,69.50
2019-04-29T13:02:14.058Z,69.50
2019-04-29T13:05:05.058Z,69.70
2019-04-29T13:07:56.955Z,69.80
2019-04-29T13:10:51.615Z,69.60
2019-04-29T13:13:22.059Z,69.50
2019-04-29T13:16:09.416Z,69.40
2019-04-29T13:18:44.051Z,69.40
2019-04-29T13:21:12.971Z,69.20
2019-04-29T13:23:55.449Z,69.10
2019-04-29T13:26:12.950Z,69.10
2019-04-29T13:28:59.062Z,69.00
2019-04-29T13:31:12.706Z,69.00
2019-04-29T13:33:41.744Z,68.90
2019-04-29T13:36:11.079Z,68.60
2019-04-29T13:38:40.386Z,68.50
2019-04-29T13:41:13.655Z,68.40
2019-04-29T13:43:40.633Z,68.40
2019-04-29T13:46:46.156Z,68.40
2019-04-29T13:49:33.391Z,68.30
2019-04-29T13:52:02.805Z,68.10
2019-04-29T13:54:31.958Z,67.90
2019-04-29T13:57:07.545Z,67.80
2019-04-29T13:59:42.154Z,67.90
2019-04-29T14:02:36.780Z,67.90
2019-04-29T14:05:07.015Z,67.90
2019-04-29T14:07:39.184Z,67.90
2019-04-29T14:10:10.377Z,67.60
2019-04-29T14:13:09.164Z,67.50
2019-04-29T14:15:09.604Z,67.20
2019-04-29T14:17:38.837Z,67.10
2019-04-29T14:20:10.873Z,67.00
2019-04-29T14:22:39.081Z,66.80
2019-04-29T14:25:08.090Z,66.80
2019-04-29T14:27:37.176Z,66.60
2019-04-29T14:30:11.194Z,66.50
2019-04-29T14:32:42.424Z,66.50
2019-04-29T14:35:27.784Z,66.50
2019-04-29T14:38:04.391Z,66.30
2019-04-29T14:40:27.315Z,66.10
2019-04-29T14:43:28.841Z,65.90
2019-04-29T14:46:15.856Z,65.70
2019-04-29T14:49:04.493Z,65.60
2019-04-29T14:51:36.600Z,65.40
2019-04-29T14:54:05.797Z,65.30
2019-04-29T14:56:32.506Z,65.10
2019-04-29T14:59:07.004Z,65.00
2019-04-29T15:01:37.898Z,65.10
2019-04-29T15:04:17.794Z,64.60
2019-04-29T15:06:40.258Z,64.50
2019-04-29T15:09:17.682Z,64.60
2019-04-29T15:12:04.117Z,64.50
2019-04-29T15:14:47.606Z,64.60
2019-04-29T15:17:40.009Z,64.40
2019-04-29T15:20:16.199Z,64.10
2019-04-29T15:22:45.334Z,64.00
2019-04-29T15:25:16.800Z,63.80
2019-04-29T15:27:45.348Z,63.80
2019-04-29T15:30:14.877Z,63.90
2019-04-29T15:32:44.191Z,63.80
2019-04-29T15:35:13.451Z,63.70
2019-04-29T15:37:42.281Z,63.60
2019-04-29T15:40:11.169Z,63.50
2019-04-29T15:42:43.242Z,63.20
2019-04-29T15:45:11.369Z,63.10
2019-04-29T15:47:41.570Z,62.90
2019-04-29T15:50:18.914Z,62.70
2019-04-29T15:52:41.780Z,62.70
2019-04-29T15:55:11.096Z,62.50
2019-04-29T15:57:40.224Z,62.30
2019-04-29T16:00:21.180Z,62.10
2019-04-29T16:02:43.746Z,62.10
2019-04-29T16:05:34.275Z,62.00
2019-04-29T16:08:10.081Z,62.00
2019-04-29T16:10:59.325Z,62.00
2019-04-29T16:13:29.469Z,62.00
2019-04-29T16:15:58.517Z,61.80
2019-04-29T16:18:28.071Z,61.90
2019-04-29T16:20:57.243Z,61.90
2019-04-29T16:23:26.138Z,62.00
2019-04-29T16:25:55.570Z,61.90
2019-04-29T16:30:55.323Z,61.80
2019-04-29T16:33:26.410Z,61.70
2019-04-29T16:35:57.779Z,61.80
2019-04-29T16:38:26.615Z,61.60
2019-04-29T16:41:12.441Z,61.70
2019-04-29T16:43:41.538Z,61.60
2019-04-29T16:46:16.736Z,61.70
2019-04-29T16:48:46.004Z,61.60
2019-04-29T16:51:16.678Z,61.50
2019-04-29T16:53:47.213Z,61.50
2019-04-29T16:56:16.579Z,61.40
2019-04-29T16:58:45.621Z,61.50
2019-04-29T17:01:14.634Z,61.50
2019-04-29T17:03:43.806Z,61.50
2019-04-29T17:06:13.165Z,61.40
2019-04-29T17:09:05.110Z,61.40
2019-04-29T17:11:33.427Z,61.20
2019-04-29T17:14:03.247Z,61.30
2019-04-29T17:16:33.226Z,61.10
2019-04-29T17:19:02.689Z,61.00
2019-04-29T17:21:32.117Z,60.90
2019-04-29T17:24:01.653Z,61.00
2019-04-29T17:26:38.697Z,61.10
2019-04-29T17:29:38.499Z,60.90
2019-04-29T17:32:11.371Z,60.90
2019-04-29T17:34:58.374Z,60.90
2019-04-29T17:35:14.119Z,61.90
2019-04-29T17:37:12.320Z,60.80
2019-04-29T17:39:41.343Z,60.80
2019-04-29T17:42:10.646Z,61.50
2019-04-29T17:44:44.734Z,60.60
2019-04-29T17:47:37.830Z,60.50
2019-04-29T17:50:30.109Z,60.50
2019-04-29T17:52:51.172Z,60.50
2019-04-29T17:55:39.578Z,60.40
2019-04-29T17:58:11.944Z,60.30
2019-04-29T18:00:59.669Z,61.00
2019-04-29T18:03:58.167Z,60.20
2019-04-29T18:06:40.442Z,60.10
2019-04-29T18:09:28.774Z,60.10
2019-04-29T18:11:59.056Z,60.20
2019-04-29T18:14:36.560Z,60.30
2019-04-29T18:16:58.932Z,60.30
2019-04-29T18:19:34.792Z,60.30
2019-04-29T18:22:30.288Z,60.20
2019-04-29T18:25:30.752Z,60.20
2019-04-29T18:28:00.065Z,60.20
2019-04-29T18:30:35.745Z,60.20
2019-04-29T18:32:59.347Z,60.30
2019-04-29T18:35:28.962Z,60.20
2019-04-29T18:37:58.165Z,60.10
2019-04-29T18:40:26.970Z,60.10
2019-04-29T18:42:56.270Z,60.10
2019-04-29T18:45:29.649Z,59.90
2019-04-29T18:47:58.018Z,59.80
2019-04-29T18:50:29.581Z,59.80
2019-04-29T18:52:59.287Z,59.80
2019-04-29T18:55:28.779Z,59.70
2019-04-29T18:57:58.469Z,59.70
2019-04-29T19:00:28.379Z,59.30
2019-04-29T19:02:59.981Z,59.70
2019-04-29T19:05:36.742Z,59.70
2019-04-29T19:08:13.977Z,60.30
2019-04-29T19:10:37.414Z,59.60
2019-04-29T19:13:12.548Z,59.60
2019-04-29T19:15:39.912Z,59.50
2019-04-29T19:18:12.348Z,59.40
2019-04-29T19:20:40.378Z,59.50
2019-04-29T19:23:10.272Z,59.50
2019-04-29T19:25:41.480Z,59.40
2019-04-29T19:28:14.978Z,59.40
2019-04-29T19:30:41.824Z,59.30
2019-04-29T19:33:10.761Z,59.40
2019-04-29T19:35:40.744Z,59.40
2019-04-29T19:38:12.340Z,59.50
2019-04-29T19:40:42.749Z,59.60
2019-04-29T19:43:15.327Z,59.50
2019-04-29T19:45:44.755Z,59.40
2019-04-29T19:48:15.976Z,59.30
2019-04-29T19:50:45.247Z,59.40
2019-04-29T19:53:14.828Z,59.40
2019-04-29T19:55:45.677Z,59.50
2019-04-29T19:58:15.508Z,59.60
2019-04-29T20:00:47.315Z,59.70
2019-04-29T20:03:23.030Z,59.50
2019-04-29T20:05:53.604Z,59.40
2019-04-29T20:08:46.281Z,59.50
2019-04-29T20:10:56.185Z,59.50
2019-04-29T20:13:30.568Z,59.50
2019-04-29T20:16:22.677Z,59.40
2019-04-29T20:19:02.473Z,59.50
2019-04-29T20:21:36.259Z,59.50
2019-04-29T20:24:09.810Z,59.60
2019-04-29T20:26:36.450Z,59.60
2019-04-29T20:29:07.341Z,59.70
2019-04-29T20:31:38.971Z,59.80
2019-04-29T20:34:07.785Z,59.90
2019-04-29T20:36:41.655Z,60.00
2019-04-29T20:39:15.258Z,61.40
2019-04-29T20:41:41.269Z,61.60
2019-04-29T20:44:09.998Z,61.60
2019-04-29T20:46:45.046Z,61.90
2019-04-29T20:49:10.435Z,61.80
2019-04-29T20:51:49.517Z,61.80
2019-04-29T20:54:19.230Z,61.70
2019-04-29T20:56:47.439Z,61.70
2019-04-29T20:59:16.921Z,61.60
2019-04-29T21:01:50.102Z,61.90
2019-04-29T21:04:31.036Z,61.90
2019-04-29T21:06:59.770Z,62.10
2019-04-29T21:09:22.082Z,62.00
2019-04-29T21:12:00.614Z,61.90
2019-04-29T21:14:37.518Z,62.00
2019-04-29T21:17:07.958Z,62.00
2019-04-29T21:19:35.516Z,62.10
2019-04-29T21:22:05.192Z,62.30
2019-04-29T21:24:35.310Z,62.30
2019-04-29T21:27:05.453Z,62.30
2019-04-29T21:29:35.837Z,62.40
2019-04-29T21:32:05.831Z,62.40
2019-04-29T21:34:42.039Z,62.50
2019-04-29T21:37:26.106Z,62.60
2019-04-29T21:39:59.205Z,62.50
2019-04-29T21:42:59.396Z,62.50
2019-04-29T21:45:28.862Z,62.50
2019-04-29T21:47:58.175Z,62.40
2019-04-29T21:50:33.883Z,62.40
2019-04-29T21:53:02.080Z,62.50
2019-04-29T21:55:29.481Z,62.50
2019-04-29T21:58:00.159Z,62.50
2019-04-29T22:00:29.782Z,62.60
2019-04-29T22:02:59.072Z,62.50
2019-04-29T22:05:28.075Z,62.50
2019-04-29T22:07:57.339Z,62.60
2019-04-29T22:10:28.994Z,62.70
2019-04-29T22:13:01.772Z,62.60
2019-04-29T22:15:32.371Z,62.80
2019-04-29T22:18:01.585Z,62.80
2019-04-29T22:20:30.513Z,62.80
2019-04-29T22:22:59.425Z,62.80
2019-04-29T22:25:28.798Z,62.80
2019-04-29T22:27:58.131Z,62.90
2019-04-29T22:30:27.246Z,62.80
2019-04-29T22:32:58.655Z,62.80
2019-04-29T22:35:27.698Z,62.90
2019-04-29T22:37:57.270Z,62.90
2019-04-29T22:40:26.434Z,62.80
2019-04-29T22:43:40.378Z,62.90
2019-04-29T22:46:09.351Z,62.90
2019-04-29T22:48:40.692Z,63.00
2019-04-29T22:51:10.174Z,62.90
2019-04-29T22:53:44.793Z,62.90
2019-04-29T22:56:14.264Z,63.10
2019-04-29T22:58:43.812Z,63.00
2019-04-29T23:01:13.220Z,63.20
2019-04-29T23:03:42.979Z,63.10
2019-04-29T23:06:11.954Z,63.10
2019-04-29T23:08:41.073Z,63.10
2019-04-29T23:11:10.359Z,63.10
2019-04-29T23:13:39.522Z,63.10
2019-04-29T23:16:08.522Z,63.10
2019-04-29T23:18:42.144Z,63.10
2019-04-29T23:21:37.338Z,63.00
2019-04-29T23:24:17.565Z,63.20
2019-04-29T23:26:46.717Z,63.30
2019-04-29T23:29:15.711Z,63.20
2019-04-29T23:31:45.376Z,63.30
2019-04-29T23:34:15.585Z,63.30
2019-04-29T23:36:48.887Z,63.20
2019-04-29T23:39:16.308Z,63.40
2019-04-29T23:41:45.832Z,63.40
2019-04-29T23:44:15.250Z,63.50
2019-04-29T23:46:44.476Z,63.40
2019-04-29T23:49:15.432Z,63.40
2019-04-29T23:51:46.475Z,63.50
2019-04-29T23:54:15.419Z,63.50
2019-04-29T23:57:02.416Z,63.50
2019-04-29T23:59:35.082Z,63.60
